Terminal Aerodrome Forecast
Issued by NWS Des Moines, IA

Home | Current Version | Previous Version | Text Only | Print | Product List | Glossary On
Versions: 1 2 3 4 5 6 7 8 9 10 11 12 13 14 15 16
000
FTUS43 KDMX 221722
TAFALO
TAF
KALO 221722Z 2218/2318 18013G20KT P6SM SKC
     FM230100 17009KT P6SM SKC
     FM230800 17005KT P6SM SKC
     FM231700 19009KT P6SM FEW140=

USA.gov is the U.S. government's official web portal to all federal, state and local government web resources and services.